Time;durP1;ratioP1;P1;durP2;ratioP2;P2;SDS_P1;SDS_P2;PMS_P1;PMS_P2;Temp;Humidity;BMP_temperature;BMP_pressure;BME280_temperature;BME280_humidity;BME280_pressure;Samples;Min_cycle;Max_cycle;Signal;HPM_P1;HPM_P2
2022/10/05 00:00:20;;;;;;;6.28;2.47;;;11.60;99.90;;;;;;6116598;23;20001;-82
2022/10/05 00:02:54;;;;;;;5.22;2.10;;;11.60;99.90;;;;;;6116812;23;20002;-87
2022/10/05 00:05:30;;;;;;;4.75;2.20;;;11.60;99.90;;;;;;6117087;23;20327;-89
2022/10/05 00:08:03;;;;;;;5.00;2.38;;;11.60;99.90;;;;;;6116669;23;20464;-89
2022/10/05 00:10:29;;;;;;;9.80;2.50;;;11.50;99.90;;;;;;6117374;23;20025;-87
2022/10/05 00:12:54;;;;;;;4.38;2.45;;;11.50;99.90;;;;;;6117875;23;20431;-90
2022/10/05 00:15:21;;;;;;;8.65;2.05;;;11.50;99.90;;;;;;6117266;23;20316;-90
2022/10/05 00:17:50;;;;;;;7.07;2.35;;;11.40;99.90;;;;;;6117925;23;20007;-86
2022/10/05 00:20:24;;;;;;;5.85;2.13;;;11.40;99.90;;;;;;6116312;23;20163;-87
2022/10/05 00:22:59;;;;;;;3.35;1.80;;;11.30;99.90;;;;;;6118003;23;20006;-86
2022/10/05 00:25:25;;;;;;;10.75;2.60;;;11.30;99.90;;;;;;6117014;23;20036;-88
2022/10/05 00:27:59;;;;;;;4.90;2.30;;;11.30;99.90;;;;;;6116687;23;20018;-86
2022/10/05 00:30:30;;;;;;;6.18;2.40;;;11.20;99.90;;;;;;6116148;23;20013;-86
2022/10/05 00:32:55;;;;;;;5.13;2.25;;;11.20;99.90;;;;;;6117448;23;20195;-87
2022/10/05 00:35:21;;;;;;;4.65;1.90;;;11.10;99.90;;;;;;6117195;23;20442;-87
2022/10/05 00:37:52;;;;;;;2.92;2.22;;;11.00;99.90;;;;;;6116964;23;20431;-87
2022/10/05 00:40:23;;;;;;;6.03;2.33;;;11.00;99.90;;;;;;6116950;23;20002;-87
2022/10/05 00:43:13;;;;;;;5.85;2.17;;;10.90;99.90;;;;;;6116974;23;20499;-90
2022/10/05 00:45:48;;;;;;;6.72;2.45;;;10.90;99.90;;;;;;6117547;23;20002;-85
2022/10/05 00:48:37;;;;;;;6.15;2.83;;;10.80;99.90;;;;;;6117385;23;20018;-87
2022/10/05 00:51:28;;;;;;;5.20;2.65;;;10.80;99.90;;;;;;6116605;23;20417;-87
2022/10/05 00:54:11;;;;;;;2.47;1.95;;;10.70;99.90;;;;;;6117417;23;20085;-88
2022/10/05 00:56:52;;;;;;;5.38;2.30;;;10.70;99.90;;;;;;6117215;23;19994;-86
2022/10/05 00:59:17;;;;;;;5.78;2.80;;;10.70;99.90;;;;;;6118262;23;20085;-87
2022/10/05 01:01:46;;;;;;;4.03;2.00;;;10.70;99.90;;;;;;6116778;23;20022;-87
2022/10/05 01:04:39;;;;;;;7.85;2.70;;;10.60;99.90;;;;;;6117220;23;20013;-85
2022/10/05 01:07:15;;;;;;;6.65;2.10;;;10.60;99.90;;;;;;6070381;23;20366;-86
2022/10/05 01:09:50;;;;;;;6.15;2.70;;;10.60;99.90;;;;;;6116431;23;19999;-87
2022/10/05 01:12:23;;;;;;;4.03;2.38;;;10.60;99.90;;;;;;6117317;23;20331;-87
2022/10/05 01:15:13;;;;;;;6.78;2.42;;;10.60;99.90;;;;;;6116421;23;20021;-87
2022/10/05 01:18:20;;;;;;;5.93;2.35;;;10.50;99.90;;;;;;6117331;23;20010;-88
2022/10/05 01:21:07;;;;;;;4.82;2.22;;;10.50;99.90;;;;;;6104153;23;20021;-88
2022/10/05 01:23:51;;;;;;;6.45;2.92;;;10.50;99.90;;;;;;6117293;23;20010;-88
2022/10/05 01:26:47;;;;;;;11.27;2.53;;;10.40;99.90;;;;;;6115625;23;20014;-89
2022/10/05 01:29:25;;;;;;;11.30;3.85;;;10.30;99.90;;;;;;6117051;23;20444;-89
2022/10/05 01:32:02;;;;;;;8.63;2.15;;;10.30;99.90;;;;;;6116412;23;20059;-88
2022/10/05 01:34:52;;;;;;;4.50;2.67;;;10.20;99.90;;;;;;6117148;23;20459;-88
2022/10/05 01:37:26;;;;;;;4.15;2.22;;;10.20;99.90;;;;;;6117819;23;20032;-86
2022/10/05 01:40:14;;;;;;;6.85;2.13;;;10.10;99.90;;;;;;6116549;23;19995;-88
2022/10/05 01:43:03;;;;;;;3.08;1.83;;;10.10;99.90;;;;;;6118514;23;20030;-89
2022/10/05 01:45:59;;;;;;;2.78;2.15;;;10.10;99.90;;;;;;6117173;23;20002;-90
2022/10/05 01:48:55;;;;;;;3.20;2.17;;;10.10;99.90;;;;;;6118471;23;20049;-89
2022/10/05 01:51:37;;;;;;;6.78;2.85;;;10.10;99.90;;;;;;6117390;23;20060;-86
2022/10/05 01:54:14;;;;;;;10.85;2.70;;;10.00;99.90;;;;;;6119200;23;20016;-88
2022/10/05 01:56:51;;;;;;;3.15;2.08;;;10.00;99.90;;;;;;6117033;23;20315;-88
2022/10/05 01:59:44;;;;;;;5.32;2.45;;;9.90;99.90;;;;;;6118956;23;20377;-90
2022/10/05 02:02:15;;;;;;;5.05;2.67;;;9.90;99.90;;;;;;6117229;23;20014;-91
2022/10/05 02:04:49;;;;;;;3.63;2.38;;;9.80;99.90;;;;;;6118172;23;20017;-89
2022/10/05 02:07:31;;;;;;;4.95;2.72;;;9.90;99.90;;;;;;6116838;23;20317;-90
2022/10/05 02:10:21;;;;;;;3.65;2.22;;;9.80;99.90;;;;;;6117412;23;20010;-90
2022/10/05 02:12:52;;;;;;;5.93;2.70;;;9.80;99.90;;;;;;6118489;23;20006;-89
2022/10/05 02:15:24;;;;;;;6.30;2.30;;;9.80;99.90;;;;;;6118003;23;20017;-88
2022/10/05 02:17:54;;;;;;;3.28;2.33;;;9.80;99.90;;;;;;6118299;23;20064;-87
2022/10/05 02:20:24;;;;;;;3.33;1.83;;;9.80;99.90;;;;;;6117318;23;20335;-86
2022/10/05 02:23:02;;;;;;;4.63;2.40;;;9.80;99.90;;;;;;6119308;23;20032;-86
2022/10/05 02:25:33;;;;;;;5.60;2.53;;;9.80;99.90;;;;;;6117741;23;20032;-88
2022/10/05 02:28:06;;;;;;;9.57;2.80;;;9.70;99.90;;;;;;6118766;23;20021;-88
2022/10/05 02:30:38;;;;;;;5.68;2.45;;;9.70;99.90;;;;;;6117767;23;20085;-87
2022/10/05 02:33:09;;;;;;;5.38;2.42;;;9.70;99.90;;;;;;6119101;23;20002;-90
2022/10/05 02:35:35;;;;;;;4.40;2.15;;;9.70;99.90;;;;;;6118054;23;20006;-89
2022/10/05 02:38:23;;;;;;;6.63;3.20;;;9.60;99.90;;;;;;6118769;23;20028;-90
2022/10/05 02:41:11;;;;;;;7.97;3.35;;;9.60;99.90;;;;;;6117464;23;20374;-90
2022/10/05 02:44:16;;;;;;;8.25;3.67;;;9.60;99.90;;;;;;6118212;23;20336;-89
2022/10/05 02:47:10;;;;;;;19.83;8.63;;;9.50;99.90;;;;;;6117011;23;20465;-90
2022/10/05 02:49:43;;;;;;;16.10;7.63;;;9.50;99.90;;;;;;6119165;23;20010;-89
2022/10/05 02:52:31;;;;;;;12.27;6.43;;;9.50;99.90;;;;;;6116953;23;20084;-88
2022/10/05 02:55:25;;;;;;;8.02;5.35;;;9.50;99.90;;;;;;6118953;23;20006;-90
2022/10/05 02:58:17;;;;;;;11.52;5.53;;;9.50;99.90;;;;;;6109157;23;20002;-89
2022/10/05 03:00:54;;;;;;;12.95;5.30;;;9.40;99.90;;;;;;6117523;23;20010;-90
2022/10/05 03:03:41;;;;;;;11.35;4.57;;;9.50;99.90;;;;;;6118729;23;20047;-89
2022/10/05 03:06:22;;;;;;;13.18;4.28;;;9.40;99.90;;;;;;6116012;23;20423;-90
2022/10/05 03:09:02;;;;;;;13.10;4.22;;;9.40;99.90;;;;;;6119347;23;20016;-90
2022/10/05 03:12:23;;;;;;;8.48;3.72;;;9.30;99.90;;;;;;6116404;23;20330;-90
2022/10/05 03:15:10;;;;;;;6.97;3.22;;;9.30;99.90;;;;;;6068532;23;20052;-89
2022/10/05 03:17:53;;;;;;;5.95;2.88;;;9.30;99.90;;;;;;6118358;23;20060;-89
2022/10/05 03:20:32;;;;;;;4.88;2.60;;;9.30;99.90;;;;;;6117992;23;20026;-88
2022/10/05 03:23:03;;;;;;;4.05;2.40;;;9.30;99.90;;;;;;6117045;23;20002;-90
2022/10/05 03:26:15;;;;;;;5.90;2.78;;;9.30;99.90;;;;;;6115861;23;20008;-89
2022/10/05 03:28:59;;;;;;;6.15;3.10;;;9.30;99.90;;;;;;6028376;23;20078;-89
2022/10/05 03:31:30;;;;;;;4.47;3.15;;;9.30;99.90;;;;;;6114905;23;20009;-89
2022/10/05 03:34:10;;;;;;;12.45;3.63;;;9.30;99.90;;;;;;6117963;23;20006;-89
2022/10/05 03:36:35;;;;;;;5.72;2.40;;;9.30;99.90;;;;;;6116666;23;20009;-91
2022/10/05 03:39:26;;;;;;;6.40;2.85;;;9.30;99.90;;;;;;6116664;23;20006;-89
2022/10/05 03:42:20;;;;;;;10.88;2.60;;;9.40;99.90;;;;;;6116325;23;20063;-88
2022/10/05 03:45:07;;;;;;;8.10;2.92;;;9.40;99.90;;;;;;6117205;23;20369;-92
2022/10/05 03:47:43;;;;;;;4.72;2.92;;;9.40;99.90;;;;;;6117405;23;20418;-89
2022/10/05 03:50:27;;;;;;;7.55;2.45;;;9.40;99.90;;;;;;6110958;23;20085;-89
2022/10/05 03:52:59;;;;;;;12.38;2.85;;;9.50;99.90;;;;;;6115010;23;20006;-88
2022/10/05 03:55:30;;;;;;;5.35;2.72;;;9.50;99.90;;;;;;6113783;23;20315;-88
2022/10/05 03:58:06;;;;;;;4.60;2.67;;;9.50;99.90;;;;;;6117070;23;20002;-87
2022/10/05 04:00:34;;;;;;;3.00;2.58;;;9.50;99.90;;;;;;6117211;23;20017;-89
2022/10/05 04:03:42;;;;;;;11.73;4.40;;;9.60;99.90;;;;;;6117454;23;20016;-88
2022/10/05 04:06:18;;;;;;;3.47;2.67;;;9.50;99.90;;;;;;6048525;23;20414;-90
2022/10/05 04:09:11;;;;;;;4.68;2.90;;;9.50;99.90;;;;;;6028326;23;20110;-89
2022/10/05 04:11:39;;;;;;;4.65;3.40;;;9.60;99.90;;;;;;6091583;23;20002;-89
2022/10/05 04:14:21;;;;;;;7.25;3.30;;;9.60;99.90;;;;;;6117174;23;20010;-86
2022/10/05 04:16:56;;;;;;;5.32;3.67;;;9.70;99.90;;;;;;6116318;23;20013;-89
2022/10/05 04:19:53;;;;;;;7.50;3.08;;;9.70;99.90;;;;;;6117429;22;20021;-84
2022/10/05 04:22:31;;;;;;;8.65;3.85;;;9.70;99.90;;;;;;6115961;23;20001;-90
2022/10/05 04:25:36;;;;;;;15.63;3.67;;;9.70;99.90;;;;;;6116039;23;20474;-89
2022/10/05 04:28:29;;;;;;;4.65;2.55;;;9.70;99.90;;;;;;6116323;23;20106;-90
2022/10/05 04:31:05;;;;;;;5.20;3.45;;;9.70;99.90;;;;;;6116505;23;20423;-88
2022/10/05 04:33:32;;;;;;;8.38;3.55;;;9.70;99.90;;;;;;6115521;23;19999;-89
2022/10/05 04:36:18;;;;;;;9.88;3.38;;;9.60;99.90;;;;;;6117235;23;20002;-89
2022/10/05 04:38:54;;;;;;;6.32;3.10;;;9.60;99.90;;;;;;6117905;23;20033;-88
2022/10/05 04:41:31;;;;;;;8.95;3.35;;;9.60;99.90;;;;;;6117952;23;20002;-89
2022/10/05 04:44:12;;;;;;;8.38;3.28;;;9.60;99.90;;;;;;6113455;23;20006;-88
2022/10/05 04:46:49;;;;;;;5.10;3.05;;;9.60;99.90;;;;;;6115134;23;20025;-89
2022/10/05 04:49:21;;;;;;;5.22;3.53;;;9.60;99.90;;;;;;6113879;23;20082;-90
2022/10/05 04:51:52;;;;;;;3.97;3.28;;;9.60;99.90;;;;;;6115017;23;20002;-91
2022/10/05 04:54:53;;;;;;;7.55;3.92;;;9.60;99.90;;;;;;6116665;23;20068;-92
2022/10/05 04:57:46;;;;;;;13.15;5.60;;;9.60;99.90;;;;;;6116244;23;20001;-89
2022/10/05 05:00:21;;;;;;;9.60;4.35;;;9.70;99.90;;;;;;6118180;23;20089;-90
2022/10/05 05:03:08;;;;;;;6.45;3.95;;;9.70;99.90;;;;;;6116595;23;19995;-90
2022/10/05 05:05:34;;;;;;;10.43;4.50;;;9.70;99.90;;;;;;6118388;23;20006;-89
2022/10/05 05:08:32;;;;;;;10.65;3.58;;;9.70;99.90;;;;;;6117199;23;20014;-90
2022/10/05 05:11:41;;;;;;;8.05;4.18;;;9.60;99.90;;;;;;6117554;23;20447;-87
2022/10/05 05:14:37;;;;;;;5.45;3.60;;;9.60;99.90;;;;;;6076695;23;20494;-88
2022/10/05 05:17:37;;;;;;;7.57;3.20;;;9.60;99.90;;;;;;6119241;23;20010;-91
2022/10/05 05:20:31;;;;;;;7.65;3.72;;;9.60;99.90;;;;;;6083633;23;20034;-91
2022/10/05 05:23:24;;;;;;;4.22;3.10;;;9.60;99.90;;;;;;6118057;23;20497;-91
2022/10/05 05:26:11;;;;;;;10.05;3.47;;;9.60;99.90;;;;;;6118284;23;20013;-92
2022/10/05 05:28:58;;;;;;;7.03;4.28;;;9.60;99.90;;;;;;6117492;23;20006;-90
2022/10/05 05:31:48;;;;;;;9.30;3.72;;;9.60;99.90;;;;;;6118288;23;20081;-90
2022/10/05 05:34:46;;;;;;;17.75;4.70;;;9.60;99.90;;;;;;6119625;23;20010;-91
2022/10/05 05:37:20;;;;;;;12.90;3.83;;;9.60;99.90;;;;;;6029256;23;20003;-92
2022/10/05 05:40:05;;;;;;;3.90;3.20;;;9.60;99.90;;;;;;6119628;23;20331;-89
2022/10/05 05:42:38;;;;;;;7.28;3.85;;;9.60;99.90;;;;;;6118405;23;20009;-92
2022/10/05 05:45:28;;;;;;;6.30;3.80;;;9.60;99.90;;;;;;6118430;23;20017;-89
2022/10/05 05:48:23;;;;;;;9.88;4.72;;;9.60;99.90;;;;;;6117539;23;20014;-89
2022/10/05 05:51:02;;;;;;;7.82;2.95;;;9.60;99.90;;;;;;6117556;23;20072;-91
2022/10/05 05:53:43;;;;;;;11.02;3.97;;;9.60;99.90;;;;;;6119419;23;20331;-91
2022/10/05 05:56:10;;;;;;;9.05;4.13;;;9.60;99.90;;;;;;6116567;23;20006;-92
2022/10/05 05:58:47;;;;;;;6.32;3.95;;;9.60;99.90;;;;;;6118660;23;20079;-91
2022/10/05 06:01:19;;;;;;;9.05;3.92;;;9.50;99.90;;;;;;6118439;23;20037;-90
2022/10/05 06:03:53;;;;;;;4.68;3.60;;;9.60;99.90;;;;;;6119627;23;20025;-91
2022/10/05 06:06:23;;;;;;;12.87;4.33;;;9.60;99.90;;;;;;6118160;23;20017;-90
2022/10/05 06:08:51;;;;;;;8.52;5.00;;;9.60;99.90;;;;;;6118344;23;20013;-91
2022/10/05 06:11:27;;;;;;;8.35;4.22;;;9.70;99.90;;;;;;6117298;23;20002;-90
2022/10/05 06:13:56;;;;;;;5.95;3.95;;;9.70;99.90;;;;;;6117555;23;20012;-90
2022/10/05 06:16:24;;;;;;;8.52;3.90;;;9.80;99.90;;;;;;6117641;23;20018;-89
2022/10/05 06:19:17;;;;;;;12.27;3.78;;;9.80;99.90;;;;;;6118159;23;20463;-91
2022/10/05 06:21:43;;;;;;;9.20;3.58;;;9.90;99.90;;;;;;6118970;23;20013;-91
2022/10/05 06:24:17;;;;;;;6.10;3.60;;;9.90;99.90;;;;;;6119116;23;20002;-90
2022/10/05 06:27:35;;;;;;;5.25;3.70;;;9.90;99.90;;;;;;6117881;23;20321;-89
2022/10/05 06:30:15;;;;;;;10.88;4.03;;;10.00;99.90;;;;;;6070978;23;20077;-90
2022/10/05 06:33:03;;;;;;;9.40;3.95;;;10.10;99.90;;;;;;6118421;23;20056;-90
2022/10/05 06:35:50;;;;;;;8.95;5.47;;;10.20;99.90;;;;;;6118867;23;20372;-90
2022/10/05 06:38:31;;;;;;;9.60;4.68;;;10.30;99.90;;;;;;6116904;23;20004;-90
2022/10/05 06:41:25;;;;;;;12.23;4.20;;;10.40;99.90;;;;;;6118396;23;20010;-90
2022/10/05 06:44:11;;;;;;;11.90;5.68;;;10.50;99.90;;;;;;6118819;23;19998;-87
2022/10/05 06:46:45;;;;;;;9.82;4.25;;;10.60;99.90;;;;;;6101603;23;20021;-87
2022/10/05 06:49:26;;;;;;;13.88;6.45;;;10.60;99.90;;;;;;6118612;23;20006;-89
2022/10/05 06:52:22;;;;;;;19.77;5.63;;;10.70;99.90;;;;;;6118286;23;20500;-91
2022/10/05 06:55:14;;;;;;;21.42;6.50;;;10.90;99.90;;;;;;6114531;23;20006;-91
2022/10/05 06:58:06;;;;;;;16.10;6.00;;;11.00;99.90;;;;;;6118831;23;20071;-90
2022/10/05 07:01:11;;;;;;;15.85;6.45;;;11.20;99.90;;;;;;6121249;23;20002;-88
2022/10/05 07:04:14;;;;;;;9.27;6.22;;;11.30;99.90;;;;;;6105258;23;20066;-85
2022/10/05 07:06:51;;;;;;;7.15;4.68;;;11.40;99.90;;;;;;6116584;23;20094;-88
2022/10/05 07:10:08;;;;;;;12.70;5.38;;;11.50;99.90;;;;;;6117877;23;20006;-87
2022/10/05 07:15:54;;;;;;;11.55;5.43;;;11.80;99.90;;;;;;6119721;23;20221;-87
2022/10/05 07:18:47;;;;;;;9.23;5.13;;;11.90;99.90;;;;;;6118134;22;20002;-88
2022/10/05 07:21:15;;;;;;;19.38;6.05;;;12.00;99.90;;;;;;6117854;23;20005;-88
2022/10/05 07:23:49;;;;;;;12.45;5.55;;;12.10;99.90;;;;;;6118885;23;20052;-86
2022/10/05 07:26:36;;;;;;;9.48;5.50;;;12.20;99.90;;;;;;6117781;23;20010;-88
2022/10/05 07:29:26;;;;;;;11.48;5.85;;;12.30;99.90;;;;;;6118951;23;20010;-88
2022/10/05 07:32:29;;;;;;;11.13;5.05;;;12.40;99.90;;;;;;6117053;23;20013;-87
2022/10/05 07:37:53;;;;;;;11.65;5.82;;;12.50;99.90;;;;;;6103630;23;20013;-87
2022/10/05 07:37:58;;;;;;;8.63;5.82;;;12.50;99.90;;;;;;6116530;23;20029;-87
2022/10/05 07:40:48;;;;;;;14.52;5.20;;;12.60;99.90;;;;;;6118084;23;20029;-85
2022/10/05 07:43:40;;;;;;;12.70;6.45;;;12.70;99.90;;;;;;6117033;23;20006;-86
2022/10/05 07:46:17;;;;;;;12.85;5.95;;;12.70;99.90;;;;;;6117154;23;19998;-86
2022/10/05 07:49:28;;;;;;;11.63;5.80;;;12.80;99.90;;;;;;6118733;23;20697;-86
2022/10/05 07:52:00;;;;;;;15.90;5.47;;;12.90;99.90;;;;;;6113117;23;20795;-87
2022/10/05 07:54:57;;;;;;;12.45;5.00;;;13.00;99.90;;;;;;6115920;23;20006;-86
2022/10/05 07:57:26;;;;;;;;;;;13.10;99.90;;;;;;6118056;23;20089;-86
2022/10/05 08:00:03;;;;;;;9.93;5.47;;;13.10;99.90;;;;;;6118793;23;19975;-85
2022/10/05 08:02:54;;;;;;;11.77;4.90;;;13.20;99.90;;;;;;6117203;23;20045;-85
2022/10/05 08:05:27;;;;;;;9.40;4.97;;;13.20;99.90;;;;;;6118440;23;20450;-85
2022/10/05 08:08:10;;;;;;;7.20;4.93;;;13.30;99.90;;;;;;6117008;23;20025;-85
2022/10/05 08:10:54;;;;;;;9.90;5.75;;;13.30;99.90;;;;;;6118602;23;20006;-84
2022/10/05 08:13:30;;;;;;;9.25;6.20;;;13.30;99.90;;;;;;6117872;23;20063;-86
2022/10/05 08:16:03;;;;;;;9.82;4.85;;;13.40;99.90;;;;;;6118466;23;20068;-85
2022/10/05 08:18:55;;;;;;;16.05;5.63;;;13.50;99.90;;;;;;6116791;23;20025;-85
2022/10/05 08:21:33;;;;;;;10.27;6.00;;;13.60;99.90;;;;;;6116281;23;20585;-85
2022/10/05 08:24:13;;;;;;;15.40;6.28;;;13.60;99.90;;;;;;6118503;23;20002;-85
2022/10/05 08:26:44;;;;;;;14.52;6.25;;;13.70;99.90;;;;;;6116812;23;20169;-85
2022/10/05 08:29:25;;;;;;;11.90;5.22;;;13.80;99.90;;;;;;6117657;23;20060;-85
2022/10/05 08:31:57;;;;;;;12.07;5.20;;;13.80;99.90;;;;;;6116954;23;19998;-85
2022/10/05 08:34:48;;;;;;;7.68;5.38;;;13.90;99.90;;;;;;6117475;23;20060;-85
2022/10/05 08:37:23;;;;;;;10.68;5.18;;;13.90;99.90;;;;;;6112374;23;20081;-85
2022/10/05 08:40:23;;;;;;;11.63;4.80;;;14.10;99.90;;;;;;6115726;23;20006;-84
2022/10/05 08:43:25;;;;;;;9.85;4.95;;;14.20;99.90;;;;;;6117634;23;20002;-86
2022/10/05 08:46:10;;;;;;;8.15;4.10;;;14.20;99.90;;;;;;6118579;23;20304;-84
2022/10/05 08:48:56;;;;;;;14.52;5.43;;;14.30;99.90;;;;;;6117315;23;20037;-84
2022/10/05 08:51:27;;;;;;;12.88;4.53;;;14.40;99.90;;;;;;6117091;23;20549;-83
2022/10/05 08:54:22;;;;;;;11.02;3.83;;;14.40;99.90;;;;;;6118703;23;20085;-84
2022/10/05 08:56:57;;;;;;;8.97;3.43;;;14.60;99.90;;;;;;6117664;23;20006;-85
2022/10/05 08:59:41;;;;;;;6.10;4.10;;;14.70;99.90;;;;;;6118065;23;20018;-88
2022/10/05 09:02:32;;;;;;;8.55;3.83;;;14.80;99.90;;;;;;6117329;23;20049;-85
2022/10/05 09:05:12;;;;;;;7.60;4.32;;;14.90;99.90;;;;;;6118230;23;20085;-84
2022/10/05 09:08:15;;;;;;;11.07;3.25;;;15.10;99.90;;;;;;6117204;23;20010;-84
2022/10/05 09:10:52;;;;;;;5.10;3.13;;;15.30;99.90;;;;;;6118132;23;20009;-83
2022/10/05 09:13:47;;;;;;;7.90;3.65;;;15.40;99.90;;;;;;6117294;23;20077;-82
2022/10/05 09:16:25;;;;;;;7.97;3.72;;;15.60;99.90;;;;;;6116307;23;20370;-82
2022/10/05 09:18:51;;;;;;;13.77;4.25;;;15.80;99.90;;;;;;6115582;23;20018;-82
2022/10/05 09:21:55;;;;;;;6.82;4.00;;;15.70;99.90;;;;;;6117429;23;20036;-83
2022/10/05 09:24:23;;;;;;;7.15;3.85;;;15.60;99.90;;;;;;6117315;23;20009;-84
2022/10/05 09:26:49;;;;;;;15.45;4.25;;;15.60;99.90;;;;;;6117457;23;20014;-83
2022/10/05 09:29:38;;;;;;;8.30;3.63;;;15.60;99.90;;;;;;6117519;23;20016;-84
2022/10/05 09:32:29;;;;;;;9.55;4.38;;;15.60;99.90;;;;;;6104986;23;20006;-82
2022/10/05 09:35:09;;;;;;;8.18;4.05;;;15.60;99.90;;;;;;6117920;23;20467;-81
2022/10/05 09:38:17;;;;;;;18.38;4.07;;;15.60;99.90;;;;;;6117080;23;20081;-83
2022/10/05 09:41:00;;;;;;;9.45;3.67;;;15.70;99.90;;;;;;6085830;23;20006;-85
2022/10/05 09:43:59;;;;;;;13.48;4.78;;;15.60;99.90;;;;;;6116628;23;20022;-84
2022/10/05 09:46:38;;;;;;;8.45;3.83;;;15.50;99.90;;;;;;6117229;23;20489;-83
2022/10/05 09:49:38;;;;;;;8.20;3.90;;;15.30;99.90;;;;;;6118035;23;20389;-84
2022/10/05 09:52:13;;;;;;;10.57;4.97;;;15.40;99.90;;;;;;6117234;23;20002;-86
2022/10/05 09:55:04;;;;;;;9.70;4.35;;;15.60;99.90;;;;;;6117580;23;20014;-82
2022/10/05 09:57:38;;;;;;;9.80;3.50;;;15.60;99.90;;;;;;6116372;23;20048;-81
2022/10/05 10:00:37;;;;;;;7.68;4.25;;;15.70;99.90;;;;;;6118219;23;20010;-83
2022/10/05 10:03:41;;;;;;;9.30;3.42;;;15.70;99.90;;;;;;6088503;23;20085;-83
2022/10/05 10:06:33;;;;;;;12.02;5.38;;;15.90;99.90;;;;;;6119185;23;20006;-85
2022/10/05 10:09:25;;;;;;;12.05;5.47;;;15.80;99.90;;;;;;6119172;23;20362;-83
2022/10/05 10:12:00;;;;;;;68.75;38.85;;;15.90;99.90;;;;;;6118283;23;20024;-82
2022/10/05 10:14:25;;;;;;;11.40;7.32;;;16.00;99.90;;;;;;6118868;23;20729;-85
2022/10/05 10:16:59;;;;;;;6.97;4.68;;;16.00;99.90;;;;;;6118315;23;20036;-82
2022/10/05 10:19:52;;;;;;;5.13;3.97;;;16.00;99.90;;;;;;6118720;23;20014;-85
2022/10/05 10:22:45;;;;;;;7.00;3.70;;;16.20;99.90;;;;;;6118276;23;20002;-84
2022/10/05 10:25:49;;;;;;;8.57;4.03;;;16.20;99.90;;;;;;6118861;23;20006;-84
2022/10/05 10:28:32;;;;;;;7.20;4.30;;;16.20;99.90;;;;;;6075801;23;20090;-84
2022/10/05 10:31:19;;;;;;;10.65;4.40;;;16.30;99.90;;;;;;6119199;23;20040;-85
2022/10/05 10:33:56;;;;;;;7.65;4.60;;;16.20;99.90;;;;;;6117980;23;20061;-83
2022/10/05 10:36:59;;;;;;;7.20;3.85;;;16.20;99.90;;;;;;6118848;23;20006;-86
2022/10/05 10:39:57;;;;;;;5.75;3.47;;;16.20;99.90;;;;;;6118846;23;20002;-87
2022/10/05 10:42:45;;;;;;;6.95;4.03;;;16.20;99.90;;;;;;6117796;23;20010;-84
2022/10/05 10:45:22;;;;;;;10.50;3.88;;;16.20;99.90;;;;;;6118485;23;20443;-85
2022/10/05 10:47:47;;;;;;;7.15;3.50;;;16.20;99.90;;;;;;6118153;23;20021;-86
2022/10/05 10:51:10;;;;;;;6.45;3.10;;;16.20;99.90;;;;;;6118907;23;20002;-84
2022/10/05 10:53:56;;;;;;;14.98;3.42;;;16.30;99.90;;;;;;6028302;23;20457;-84
2022/10/05 10:57:02;;;;;;;7.00;3.75;;;16.40;99.90;;;;;;6119031;23;20002;-85
2022/10/05 10:59:54;;;;;;;5.35;3.70;;;16.40;99.90;;;;;;6118848;23;20489;-82
2022/10/05 11:03:00;;;;;;;5.13;3.67;;;16.40;99.90;;;;;;6118199;23;20052;-82
2022/10/05 11:05:49;;;;;;;6.17;3.50;;;16.40;99.90;;;;;;6118914;23;20318;-84
2022/10/05 11:08:47;;;;;;;11.77;3.95;;;16.40;99.90;;;;;;6117643;23;20010;-83
2022/10/05 11:11:53;;;;;;;8.40;3.70;;;16.50;99.90;;;;;;6118304;23;20391;-82
2022/10/05 11:14:51;;;;;;;6.07;3.58;;;16.50;99.90;;;;;;6117133;23;20010;-83
2022/10/05 11:17:28;;;;;;;7.18;3.70;;;16.50;99.90;;;;;;6114762;23;20017;-86
2022/10/05 11:20:08;;;;;;;9.27;3.72;;;16.60;99.90;;;;;;6114034;23;20084;-82
2022/10/05 11:22:56;;;;;;;8.45;4.38;;;16.70;99.90;;;;;;6116969;23;20484;-82
2022/10/05 11:25:34;;;;;;;6.18;3.78;;;16.70;99.90;;;;;;6118963;23;20001;-83
2022/10/05 11:28:07;;;;;;;6.10;3.55;;;16.60;99.90;;;;;;6117342;23;20010;-85
2022/10/05 11:30:58;;;;;;;5.18;3.20;;;16.70;99.90;;;;;;6118706;23;20029;-83
2022/10/05 11:33:42;;;;;;;7.18;3.33;;;16.80;99.90;;;;;;6117375;23;20081;-83
2022/10/05 11:36:27;;;;;;;5.85;3.70;;;16.80;99.90;;;;;;6118476;23;20030;-85
2022/10/05 11:39:23;;;;;;;20.23;4.22;;;16.90;99.90;;;;;;6116893;23;20387;-81
2022/10/05 11:41:50;;;;;;;9.73;3.10;;;16.90;99.90;;;;;;6118915;23;20002;-83
2022/10/05 11:44:34;;;;;;;6.47;3.90;;;16.90;99.90;;;;;;6118528;23;20022;-82
2022/10/05 11:47:09;;;;;;;14.45;3.35;;;17.00;99.90;;;;;;6117511;23;20018;-86
2022/10/05 11:49:48;;;;;;;7.05;3.90;;;17.00;99.90;;;;;;6118656;23;19998;-83
2022/10/05 11:52:36;;;;;;;4.88;3.28;;;17.10;99.90;;;;;;6117992;23;19998;-81
2022/10/05 11:55:26;;;;;;;7.90;3.80;;;17.10;99.90;;;;;;6118385;23;20002;-85
2022/10/05 11:58:06;;;;;;;9.27;3.72;;;17.10;99.90;;;;;;6077324;23;20006;-85
2022/10/05 12:00:59;;;;;;;9.13;3.35;;;17.10;99.90;;;;;;6117990;23;20336;-84
2022/10/05 12:03:34;;;;;;;6.75;3.95;;;17.30;99.90;;;;;;6116686;23;20635;-85
2022/10/05 12:06:06;;;;;;;;;;;17.30;99.90;;;;;;6117602;23;20435;-83
2022/10/05 12:08:51;;;;;;;3.97;3.40;;;17.30;99.90;;;;;;6117242;23;19909;-82
2022/10/05 12:11:53;;;;;;;5.43;3.40;;;17.40;99.90;;;;;;6101666;23;19998;-81
2022/10/05 12:14:46;;;;;;;6.07;3.90;;;17.50;99.90;;;;;;6116040;23;20037;-80
2022/10/05 12:17:36;;;;;;;6.00;3.50;;;17.50;99.90;;;;;;6115994;23;20014;-82
2022/10/05 12:20:26;;;;;;;7.15;3.75;;;17.50;99.90;;;;;;6115012;23;20010;-81
2022/10/05 12:23:32;;;;;;;6.32;3.55;;;17.60;99.90;;;;;;6103696;23;20002;-81
2022/10/05 12:26:09;;;;;;;10.10;3.13;;;17.60;99.90;;;;;;6117793;23;19998;-81
2022/10/05 12:28:52;;;;;;;5.93;3.58;;;17.70;99.90;;;;;;6117113;23;20629;-84
2022/10/05 12:31:39;;;;;;;6.53;3.70;;;17.80;99.90;;;;;;6117899;23;20051;-82
2022/10/05 12:34:15;;;;;;;5.10;3.55;;;17.80;99.90;;;;;;6116808;23;20402;-83
2022/10/05 12:36:59;;;;;;;10.43;3.75;;;17.90;99.90;;;;;;6116766;23;20343;-81
2022/10/05 12:39:31;;;;;;;6.70;3.40;;;17.90;99.90;;;;;;6115767;23;20002;-83
2022/10/05 12:42:29;;;;;;;20.80;6.90;;;18.00;99.90;;;;;;6117140;23;20336;-82
2022/10/05 12:45:15;;;;;;;8.75;4.20;;;18.10;99.90;;;;;;6116809;23;20089;-80
2022/10/05 12:47:53;;;;;;;5.72;3.50;;;18.00;99.90;;;;;;6115677;23;20041;-83
2022/10/05 12:50:30;;;;;;;7.05;3.47;;;17.90;99.90;;;;;;6117592;23;20006;-83
2022/10/05 12:52:59;;;;;;;6.15;3.22;;;17.90;99.90;;;;;;6116553;23;20017;-82
2022/10/05 12:55:43;;;;;;;4.85;3.25;;;18.00;99.90;;;;;;6117279;23;20013;-81
2022/10/05 12:58:28;;;;;;;10.63;4.38;;;18.10;99.90;;;;;;6116436;23;20297;-80
2022/10/05 13:01:17;;;;;;;7.07;3.80;;;18.10;99.90;;;;;;6116859;23;20009;-81
2022/10/05 13:03:52;;;;;;;9.73;3.50;;;18.10;99.90;;;;;;6116786;23;20006;-83
2022/10/05 13:06:43;;;;;;;11.05;3.60;;;18.20;99.90;;;;;;6118006;23;20006;-82
2022/10/05 13:09:37;;;;;;;8.20;3.33;;;18.20;99.90;;;;;;6116147;23;20068;-81
2022/10/05 13:12:16;;;;;;;7.68;3.28;;;18.20;99.90;;;;;;6117404;23;20002;-82
2022/10/05 13:15:31;;;;;;;6.00;3.47;;;18.20;99.90;;;;;;6116002;23;20520;-81
2022/10/05 13:18:26;;;;;;;5.22;2.83;;;18.30;99.90;;;;;;6107635;23;20010;-83
2022/10/05 13:21:03;;;;;;;4.73;2.53;;;18.20;99.90;;;;;;6117080;23;20022;-81
2022/10/05 13:23:56;;;;;;;7.07;3.70;;;18.30;99.90;;;;;;6114208;23;20017;-81
2022/10/05 13:26:38;;;;;;;4.03;2.30;;;18.30;99.90;;;;;;6116349;23;20006;-81
2022/10/05 13:29:28;;;;;;;8.13;3.03;;;18.30;99.90;;;;;;6116178;23;20033;-82
2022/10/05 13:32:02;;;;;;;9.77;3.50;;;18.20;99.90;;;;;;6117914;23;20033;-84
2022/10/05 13:34:59;;;;;;;5.20;2.25;;;18.10;99.90;;;;;;6114573;23;20005;-83
2022/10/05 13:37:38;;;;;;;5.70;2.08;;;18.10;99.90;;;;;;6115563;23;20297;-83
2022/10/05 13:40:28;;;;;;;4.00;2.45;;;18.10;99.90;;;;;;6117906;23;20059;-83
2022/10/05 13:43:05;;;;;;;4.47;2.00;;;18.10;99.90;;;;;;6117112;23;20086;-84
2022/10/05 13:45:55;;;;;;;4.07;2.38;;;18.10;99.90;;;;;;6118347;23;19998;-83
2022/10/05 13:49:00;;;;;;;3.67;2.50;;;18.20;99.90;;;;;;6117716;23;20041;-83
2022/10/05 13:51:42;;;;;;;3.95;2.33;;;18.20;99.90;;;;;;6070826;23;20002;-86
2022/10/05 13:54:14;;;;;;;5.50;1.80;;;18.30;99.90;;;;;;6116046;23;20002;-82
2022/10/05 13:56:44;;;;;;;3.03;2.20;;;18.40;99.90;;;;;;6116792;23;20044;-83
2022/10/05 13:59:31;;;;;;;2.80;1.77;;;18.50;99.90;;;;;;6115592;23;20010;-85
2022/10/05 14:02:27;;;;;;;2.33;1.52;;;18.60;99.90;;;;;;6116080;23;20014;-81
2022/10/05 14:05:01;;;;;;;3.37;1.90;;;18.70;99.90;;;;;;6108280;23;20014;-86
2022/10/05 14:07:48;;;;;;;3.60;2.20;;;18.90;99.90;;;;;;6114301;23;20018;-86
2022/10/05 14:10:38;;;;;;;6.05;2.15;;;19.10;99.90;;;;;;6118702;23;20002;-89
2022/10/05 14:13:27;;;;;;;3.53;1.90;;;19.20;99.90;;;;;;6116618;23;20009;-85
2022/10/05 14:16:22;;;;;;;3.15;1.63;;;19.30;99.90;;;;;;6118255;23;20084;-84